Time;durP1;ratioP1;P1;durP2;ratioP2;P2;SDS_P1;SDS_P2;PMS_P1;PMS_P2;Temp;Humidity;BMP_temperature;BMP_pressure;BME280_temperature;BME280_humidity;BME280_pressure;Samples;Min_cycle;Max_cycle;Signal;HPM_P1;HPM_P2
2023/06/09 00:01:53;;;;;;;79.70;32.77;;;17.80;99.90;;;;;;4886039;29;20167;-80
2023/06/09 00:04:20;;;;;;;77.20;26.73;;;17.80;99.90;;;;;;4885734;29;20163;-80
2023/06/09 00:06:46;;;;;;;78.73;27.97;;;18.00;99.90;;;;;;4885971;29;20429;-80
2023/06/09 00:09:13;;;;;;;81.00;27.07;;;18.00;99.90;;;;;;4885750;29;20419;-80
2023/06/09 00:11:39;;;;;;;79.60;23.23;;;17.90;99.90;;;;;;4884375;29;20495;-80
2023/06/09 00:14:05;;;;;;;80.37;27.70;;;17.70;99.90;;;;;;4885846;29;20415;-80
2023/06/09 00:16:31;;;;;;;78.63;28.20;;;17.60;99.90;;;;;;4884278;29;20442;-80
2023/06/09 00:19:03;;;;;;;76.53;22.60;;;17.40;99.90;;;;;;4885786;29;20446;-80
2023/06/09 00:21:29;;;;;;;78.63;19.33;;;17.50;99.90;;;;;;4885729;29;20230;-80
2023/06/09 00:23:58;;;;;;;81.17;24.13;;;17.40;99.90;;;;;;4884286;29;20415;-80
2023/06/09 00:26:23;;;;;;;77.30;22.23;;;17.30;99.90;;;;;;4885486;29;20842;-80
2023/06/09 00:28:49;;;;;;;80.33;23.37;;;17.30;99.90;;;;;;4885305;29;20439;-80
2023/06/09 00:31:15;;;;;;;78.43;22.30;;;17.30;99.90;;;;;;4885249;29;20195;-80
2023/06/09 00:33:40;;;;;;;77.97;24.27;;;17.20;99.90;;;;;;4885307;29;20175;-80
2023/06/09 00:36:07;;;;;;;77.80;24.10;;;17.10;99.90;;;;;;4885452;29;20171;-79
2023/06/09 00:38:33;;;;;;;75.33;21.87;;;17.00;99.90;;;;;;4883887;29;20622;-80
2023/06/09 00:40:59;;;;;;;76.33;21.47;;;17.10;99.90;;;;;;4885633;29;20403;-80
2023/06/09 00:43:25;;;;;;;75.77;24.33;;;17.10;99.90;;;;;;4885043;29;20423;-80
2023/06/09 00:45:51;;;;;;;78.87;22.13;;;17.00;99.90;;;;;;4885233;29;20718;-80
2023/06/09 00:48:16;;;;;;;76.07;23.07;;;17.00;99.90;;;;;;4885028;29;20540;-80
2023/06/09 00:50:42;;;;;;;74.83;21.80;;;17.00;99.90;;;;;;4884882;29;20202;-80
2023/06/09 00:53:09;;;;;;;83.17;22.60;;;17.00;99.90;;;;;;4884910;29;20178;-80
2023/06/09 00:55:39;;;;;;;77.30;24.67;;;17.00;99.90;;;;;;4884638;29;20214;-80
2023/06/09 00:58:06;;;;;;;75.47;23.93;;;16.90;99.90;;;;;;4884957;29;20808;-80
2023/06/09 01:00:33;;;;;;;75.47;22.40;;;16.90;99.90;;;;;;4884439;29;20403;-80
2023/06/09 01:03:00;;;;;;;78.70;23.93;;;16.90;99.90;;;;;;4883382;29;20423;-80
2023/06/09 01:05:28;;;;;;;77.97;25.00;;;16.80;99.90;;;;;;4884351;29;20784;-80
2023/06/09 01:08:16;;;;;;;76.90;23.30;;;16.80;99.90;;;;;;4883051;29;20986;-79
2023/06/09 01:10:59;;;;;;;77.17;22.40;;;16.80;99.90;;;;;;4883856;29;20419;-79
2023/06/09 01:13:36;;;;;;;76.20;22.40;;;16.80;99.90;;;;;;4882184;29;20395;-80
2023/06/09 01:16:11;;;;;;;75.80;23.80;;;16.60;99.90;;;;;;4884450;29;20387;-79
2023/06/09 01:18:42;;;;;;;77.10;22.73;;;16.60;99.90;;;;;;4884017;29;20502;-80
2023/06/09 01:21:17;;;;;;;79.97;24.07;;;16.50;99.90;;;;;;4883100;29;20397;-80
2023/06/09 01:24:09;;;;;;;77.07;21.80;;;16.50;99.90;;;;;;4884101;29;20482;-78
2023/06/09 01:26:38;;;;;;;80.40;22.00;;;16.60;99.90;;;;;;4884031;29;20428;-80
2023/06/09 01:29:05;;;;;;;77.00;24.73;;;16.60;99.90;;;;;;4883949;29;20853;-79
2023/06/09 01:31:32;;;;;;;75.30;22.97;;;16.50;99.90;;;;;;4883489;29;20773;-78
2023/06/09 01:34:00;;;;;;;75.70;23.17;;;16.60;99.90;;;;;;4883513;29;20414;-79
2023/06/09 01:36:26;;;;;;;76.23;23.27;;;16.60;99.90;;;;;;4883261;29;20408;-79
2023/06/09 01:38:52;;;;;;;74.80;21.50;;;16.50;99.90;;;;;;4883076;29;20451;-79
2023/06/09 01:41:18;;;;;;;77.67;22.53;;;16.60;99.90;;;;;;4883532;29;20522;-78
2023/06/09 01:43:43;;;;;;;76.07;23.47;;;16.50;99.90;;;;;;4883397;29;20460;-80
2023/06/09 01:46:09;;;;;;;77.03;19.97;;;16.50;99.90;;;;;;4883316;29;20626;-79
2023/06/09 01:48:37;;;;;;;79.43;21.30;;;16.40;99.90;;;;;;4883465;29;20174;-80
2023/06/09 01:51:09;;;;;;;77.20;24.70;;;16.30;99.90;;;;;;4883441;29;20175;-79
2023/06/09 01:53:38;;;;;;;74.90;19.70;;;16.10;99.90;;;;;;4883084;29;20395;-78
2023/06/09 01:56:28;;;;;;;80.80;25.40;;;16.10;99.90;;;;;;4883232;29;20415;-79
2023/06/09 01:58:57;;;;;;;78.70;24.33;;;16.00;99.90;;;;;;4883143;29;20443;-79
2023/06/09 02:01:24;;;;;;;75.40;20.53;;;16.00;99.90;;;;;;4881909;29;20426;-79
2023/06/09 02:03:53;;;;;;;79.27;20.63;;;16.20;99.90;;;;;;4882395;29;20399;-80
2023/06/09 02:06:20;;;;;;;74.13;20.77;;;16.20;99.90;;;;;;4883560;29;20464;-79
2023/06/09 02:08:46;;;;;;;74.53;19.13;;;16.10;99.90;;;;;;4882911;29;20520;-80
2023/06/09 02:11:12;;;;;;;75.07;19.23;;;16.10;99.90;;;;;;4882867;29;20775;-80
2023/06/09 02:13:38;;;;;;;77.00;23.20;;;16.10;99.90;;;;;;4882668;29;20407;-80
2023/06/09 02:16:04;;;;;;;78.00;21.83;;;16.00;99.90;;;;;;4882755;29;20419;-79
2023/06/09 02:18:32;;;;;;;76.43;19.30;;;16.10;99.90;;;;;;4881345;29;20206;-79
2023/06/09 02:20:58;;;;;;;77.80;25.47;;;16.00;99.90;;;;;;4881369;29;20418;-79
2023/06/09 02:23:24;;;;;;;81.50;25.20;;;15.90;99.90;;;;;;4882121;29;20408;-79
2023/06/09 02:25:50;;;;;;;79.80;21.20;;;15.90;99.90;;;;;;4883374;29;20912;-80
2023/06/09 02:28:16;;;;;;;76.77;21.30;;;16.00;99.90;;;;;;4882962;29;20843;-80
2023/06/09 02:30:43;;;;;;;77.60;21.87;;;15.90;99.90;;;;;;4883024;29;20433;-80
2023/06/09 02:33:10;;;;;;;76.80;22.00;;;15.80;99.90;;;;;;4883315;29;20421;-80
2023/06/09 02:35:36;;;;;;;76.37;19.17;;;15.80;99.90;;;;;;4882968;29;20438;-80
2023/06/09 02:38:05;;;;;;;77.20;25.20;;;15.80;99.90;;;;;;4883088;29;20803;-80
2023/06/09 02:40:32;;;;;;;77.70;26.73;;;15.70;99.90;;;;;;4882891;29;20170;-80
2023/06/09 02:42:58;;;;;;;80.87;28.03;;;15.60;99.90;;;;;;4883152;29;20428;-80
2023/06/09 02:45:24;;;;;;;74.97;20.70;;;15.60;99.90;;;;;;4883476;29;20411;-80
2023/06/09 02:47:50;;;;;;;79.37;24.67;;;15.70;99.90;;;;;;4883521;29;20438;-80
2023/06/09 02:50:17;;;;;;;81.00;26.60;;;15.70;99.90;;;;;;4883286;29;20406;-80
2023/06/09 02:52:42;;;;;;;77.60;29.17;;;15.60;99.90;;;;;;4883455;29;20407;-80
2023/06/09 02:55:08;;;;;;;76.50;25.13;;;15.60;99.90;;;;;;4883166;29;20431;-80
2023/06/09 02:57:34;;;;;;;76.50;19.10;;;15.80;99.90;;;;;;4882438;29;20194;-80
2023/06/09 03:00:00;;;;;;;81.00;24.97;;;15.90;99.90;;;;;;4883853;29;20544;-80
2023/06/09 03:02:27;;;;;;;86.43;25.40;;;15.90;99.90;;;;;;4882778;29;20419;-80
2023/06/09 03:04:53;;;;;;;78.00;24.43;;;15.70;99.90;;;;;;4881636;29;20493;-80
2023/06/09 03:07:18;;;;;;;77.30;25.10;;;15.70;99.90;;;;;;4882766;29;20468;-80
2023/06/09 03:09:44;;;;;;;77.60;22.90;;;15.60;99.90;;;;;;4883270;29;20177;-80
2023/06/09 03:12:10;;;;;;;77.90;21.70;;;15.50;99.90;;;;;;4882819;29;20244;-80
2023/06/09 03:14:36;;;;;;;77.03;20.73;;;15.50;99.90;;;;;;4883167;29;20414;-80
2023/06/09 03:17:04;;;;;;;78.90;20.90;;;15.50;99.90;;;;;;4881328;29;20436;-80
2023/06/09 03:19:30;;;;;;;79.07;20.10;;;15.40;99.90;;;;;;4882657;29;20457;-80
2023/06/09 03:21:57;;;;;;;75.63;20.90;;;15.40;99.90;;;;;;4882598;29;20416;-80
2023/06/09 03:24:23;;;;;;;84.53;27.80;;;15.40;99.90;;;;;;4883103;29;20411;-80
2023/06/09 03:26:49;;;;;;;80.60;30.13;;;15.30;99.90;;;;;;4882727;29;20454;-80
2023/06/09 03:29:15;;;;;;;80.23;34.07;;;15.20;99.90;;;;;;4882741;29;20409;-80
2023/06/09 03:31:41;;;;;;;78.90;29.20;;;15.20;99.90;;;;;;4882951;29;20206;-80
2023/06/09 03:34:07;;;;;;;76.43;24.63;;;15.20;99.90;;;;;;4882605;29;20774;-80
2023/06/09 03:36:35;;;;;;;84.83;32.43;;;15.30;99.90;;;;;;4883697;29;20448;-80
2023/06/09 03:39:02;;;;;;;75.53;25.40;;;15.30;99.90;;;;;;4884442;29;20206;-80
2023/06/09 03:41:28;;;;;;;78.27;25.07;;;15.40;99.90;;;;;;4885911;29;20402;-80
2023/06/09 03:43:54;;;;;;;78.20;27.53;;;15.30;99.90;;;;;;4885813;29;20410;-80
2023/06/09 03:46:19;;;;;;;79.30;27.77;;;15.30;99.90;;;;;;4885754;29;20175;-78
2023/06/09 03:48:46;;;;;;;75.97;24.90;;;15.20;99.90;;;;;;4884173;29;20457;-79
2023/06/09 03:51:11;;;;;;;79.30;31.77;;;15.30;99.90;;;;;;4885225;29;20424;-80
2023/06/09 03:53:37;;;;;;;78.73;33.27;;;15.20;99.90;;;;;;4885333;29;20424;-78
2023/06/09 03:56:03;;;;;;;77.00;30.23;;;15.10;99.90;;;;;;4942860;23;20299;-78
2023/06/09 03:58:29;;;;;;;76.10;30.33;;;15.10;99.90;;;;;;4885935;29;20199;-79
2023/06/09 04:00:54;;;;;;;79.23;35.57;;;15.10;99.90;;;;;;4885660;29;20912;-80
2023/06/09 04:03:23;;;;;;;79.33;35.90;;;15.10;99.90;;;;;;4886097;29;20235;-79
2023/06/09 04:05:49;;;;;;;83.30;38.03;;;15.00;99.90;;;;;;4886090;29;20172;-79
2023/06/09 04:08:15;;;;;;;80.07;35.87;;;15.00;99.90;;;;;;4885461;29;20530;-79
2023/06/09 04:10:41;;;;;;;78.60;29.20;;;15.10;99.90;;;;;;4885717;29;20411;-78
2023/06/09 04:13:08;;;;;;;75.00;23.63;;;15.30;99.90;;;;;;4886614;29;20187;-78
2023/06/09 04:15:35;;;;;;;77.70;25.67;;;15.30;99.90;;;;;;4886007;29;20817;-80
2023/06/09 04:18:03;;;;;;;81.27;29.37;;;15.30;99.90;;;;;;4884293;29;20438;-80
2023/06/09 04:20:29;;;;;;;77.70;28.63;;;15.20;99.90;;;;;;4884068;29;20478;-78
2023/06/09 04:22:55;;;;;;;79.27;33.73;;;15.20;99.90;;;;;;4885702;29;20885;-79
2023/06/09 04:25:27;;;;;;;80.03;31.33;;;15.20;99.90;;;;;;4885730;29;20498;-78
2023/06/09 04:27:57;;;;;;;78.73;29.83;;;15.30;99.90;;;;;;4885891;29;20439;-78
2023/06/09 04:30:25;;;;;;;79.50;36.33;;;15.30;99.90;;;;;;4885454;29;20418;-80
2023/06/09 04:32:52;;;;;;;79.40;32.63;;;15.40;99.90;;;;;;4886315;29;20405;-80
2023/06/09 04:35:22;;;;;;;78.47;27.43;;;15.50;99.90;;;;;;4885417;29;20425;-79
2023/06/09 04:37:50;;;;;;;74.80;19.77;;;15.80;99.90;;;;;;4885025;29;20806;-80
2023/06/09 04:40:23;;;;;;;71.07;15.73;;;16.20;99.90;;;;;;4884609;29;20413;-79
2023/06/09 04:42:55;;;;;;;71.93;17.30;;;16.60;99.90;;;;;;4883999;29;20466;-78
2023/06/09 04:45:27;;;;;;;73.80;18.20;;;17.00;99.90;;;;;;4884484;29;20805;-79
2023/06/09 04:48:00;;;;;;;73.60;16.80;;;17.40;99.90;;;;;;4884623;29;20833;-79
2023/06/09 04:50:29;;;;;;;76.17;17.27;;;17.70;99.90;;;;;;4885034;29;20392;-79
2023/06/09 04:52:58;;;;;;;75.57;15.00;;;18.10;99.90;;;;;;4884880;29;20466;-80
2023/06/09 04:55:25;;;;;;;75.30;15.13;;;18.30;99.90;;;;;;4883918;29;20434;-80
2023/06/09 04:57:55;;;;;;;75.13;15.57;;;18.60;99.90;;;;;;4883941;29;20515;-79
2023/06/09 05:00:21;;;;;;;76.30;19.13;;;18.80;99.90;;;;;;4882636;29;20442;-79
2023/06/09 05:02:47;;;;;;;74.40;16.90;;;19.00;99.90;;;;;;4884484;29;20427;-79
2023/06/09 05:05:13;;;;;;;75.37;16.20;;;19.10;99.90;;;;;;4884282;29;20411;-79
2023/06/09 05:07:40;;;;;;;75.27;17.63;;;19.20;99.90;;;;;;4883365;29;20242;-79
2023/06/09 05:10:09;;;;;;;76.13;17.97;;;19.10;99.90;;;;;;4882298;29;20423;-79
2023/06/09 05:12:39;;;;;;;80.67;18.27;;;19.00;99.90;;;;;;4883483;29;20411;-79
2023/06/09 05:15:05;;;;;;;74.93;15.67;;;18.90;99.90;;;;;;4882182;29;20428;-79
2023/06/09 05:17:33;;;;;;;79.50;14.70;;;18.80;99.90;;;;;;4883410;29;20431;-79
2023/06/09 05:19:59;;;;;;;72.47;12.53;;;18.80;99.90;;;;;;4883970;29;20447;-80
2023/06/09 05:22:25;;;;;;;74.67;13.50;;;18.80;99.90;;;;;;4883860;29;20511;-79
2023/06/09 05:24:51;;;;;;;74.57;14.30;;;18.70;99.90;;;;;;4883890;29;20448;-78
2023/06/09 05:27:16;;;;;;;74.97;14.80;;;18.60;99.90;;;;;;4883213;29;20191;-79
2023/06/09 05:29:42;;;;;;;76.90;15.23;;;18.60;99.90;;;;;;4882108;29;20570;-79
2023/06/09 05:32:08;;;;;;;77.97;15.17;;;18.60;99.90;;;;;;4883159;29;20180;-79
2023/06/09 05:34:33;;;;;;;77.17;15.70;;;18.50;99.90;;;;;;4883990;29;20687;-79
2023/06/09 05:36:59;;;;;;;73.97;13.97;;;18.40;99.90;;;;;;4881509;29;20615;-79
2023/06/09 05:39:25;;;;;;;77.00;16.83;;;18.40;99.90;;;;;;4883311;29;20663;-79
2023/06/09 05:41:50;;;;;;;75.00;16.57;;;18.30;99.90;;;;;;4881260;29;20596;-80
2023/06/09 05:44:16;;;;;;;75.90;19.37;;;18.20;99.90;;;;;;4882421;29;20183;-80
2023/06/09 05:46:42;;;;;;;73.50;16.97;;;18.20;99.90;;;;;;4880661;29;20230;-80
2023/06/09 05:49:08;;;;;;;77.60;19.37;;;18.20;99.90;;;;;;4882641;29;20183;-79
2023/06/09 05:51:33;;;;;;;85.50;21.47;;;18.20;99.90;;;;;;4882235;29;20230;-80
2023/06/09 05:54:00;;;;;;;75.70;19.83;;;18.20;99.90;;;;;;4882121;29;20545;-80
2023/06/09 05:56:26;;;;;;;78.27;18.67;;;18.10;99.90;;;;;;4882712;29;20159;-80
2023/06/09 05:58:52;;;;;;;76.07;19.40;;;18.20;99.90;;;;;;4881037;29;20467;-79
2023/06/09 06:01:19;;;;;;;78.20;20.47;;;18.20;99.90;;;;;;4880840;29;20192;-80
2023/06/09 06:03:44;;;;;;;78.37;21.37;;;18.30;99.90;;;;;;4882011;29;20411;-80
2023/06/09 06:06:10;;;;;;;78.10;21.77;;;18.30;99.90;;;;;;4882315;29;20547;-81
2023/06/09 06:08:38;;;;;;;77.87;24.30;;;18.30;99.90;;;;;;4882100;29;20167;-80
2023/06/09 06:11:04;;;;;;;80.47;25.60;;;18.30;99.90;;;;;;4881953;29;20201;-80
2023/06/09 06:13:30;;;;;;;81.43;23.33;;;18.40;99.90;;;;;;4881786;29;20415;-80
2023/06/09 06:15:59;;;;;;;82.43;25.37;;;18.40;99.90;;;;;;4881604;29;20419;-80
2023/06/09 06:18:25;;;;;;;81.00;28.17;;;18.40;99.90;;;;;;4881571;29;20466;-79
2023/06/09 06:20:51;;;;;;;80.30;25.70;;;18.40;99.90;;;;;;4882449;29;20784;-80
2023/06/09 06:23:17;;;;;;;87.00;23.57;;;18.40;99.90;;;;;;4882418;29;20419;-81
2023/06/09 06:25:42;;;;;;;78.37;24.87;;;18.50;99.90;;;;;;4881805;29;20167;-79
2023/06/09 06:28:10;;;;;;;78.87;27.37;;;18.50;99.90;;;;;;4882180;29;20438;-80
2023/06/09 06:30:37;;;;;;;78.27;25.40;;;18.60;99.90;;;;;;4882986;29;20399;-81
2023/06/09 06:33:04;;;;;;;75.50;20.27;;;18.60;99.90;;;;;;4880700;29;20415;-80
2023/06/09 06:35:30;;;;;;;80.17;23.63;;;18.70;99.90;;;;;;4880976;29;20931;-80
2023/06/09 06:37:57;;;;;;;80.47;24.33;;;18.80;99.90;;;;;;4882056;29;20438;-80
2023/06/09 06:40:23;;;;;;;79.47;22.03;;;18.80;99.90;;;;;;4882251;29;20419;-80
2023/06/09 06:42:49;;;;;;;81.37;24.13;;;18.80;99.90;;;;;;4880997;29;20439;-80
2023/06/09 06:45:15;;;;;;;73.50;15.93;;;18.90;99.90;;;;;;4881168;29;20824;-80
2023/06/09 06:47:42;;;;;;;74.67;14.83;;;18.90;99.90;;;;;;4882041;29;20952;-80
2023/06/09 06:50:09;;;;;;;73.47;13.17;;;19.00;99.90;;;;;;4880963;29;20769;-80
2023/06/09 06:52:35;;;;;;;72.63;13.87;;;19.10;99.90;;;;;;4879662;29;20816;-79
2023/06/09 06:55:01;;;;;;;76.00;11.30;;;19.20;99.90;;;;;;4881024;29;20939;-80
2023/06/09 06:57:27;;;;;;;74.23;11.50;;;19.20;99.90;;;;;;4881327;29;20443;-81
2023/06/09 06:59:53;;;;;;;71.67;11.60;;;19.30;99.90;;;;;;4880639;29;20194;-80
2023/06/09 07:02:18;;;;;;;71.83;11.63;;;19.40;99.90;;;;;;4880787;29;20282;-80
2023/06/09 07:04:44;;;;;;;71.53;10.10;;;19.50;99.90;;;;;;4880935;29;20167;-80
2023/06/09 07:07:10;;;;;;;72.63;15.00;;;19.50;99.90;;;;;;4880083;29;20832;-80
2023/06/09 07:09:37;;;;;;;71.53;13.00;;;19.50;99.90;;;;;;4882638;29;20175;-79
2023/06/09 07:12:03;;;;;;;71.40;13.10;;;19.50;99.90;;;;;;4885665;29;20179;-80
2023/06/09 07:14:30;;;;;;;71.20;11.00;;;19.60;99.90;;;;;;4884962;29;20975;-78
2023/06/09 07:16:55;;;;;;;71.70;11.77;;;19.60;99.90;;;;;;4885055;29;20273;-80
2023/06/09 07:19:21;;;;;;;72.90;11.73;;;19.70;99.90;;;;;;4883624;29;20619;-79
2023/06/09 07:21:47;;;;;;;70.83;11.13;;;19.70;99.90;;;;;;4884724;29;20177;-79
2023/06/09 07:24:12;;;;;;;73.30;12.10;;;19.80;96.80;;;;;;4885282;29;20175;-79
2023/06/09 07:26:38;;;;;;;72.20;10.10;;;19.80;99.90;;;;;;4884631;29;20219;-79
2023/06/09 07:29:04;;;;;;;72.30;12.83;;;19.80;99.90;;;;;;4885024;29;20186;-79
2023/06/09 07:31:30;;;;;;;69.80;10.23;;;19.90;99.90;;;;;;4884919;29;20163;-78
2023/06/09 07:33:56;;;;;;;71.40;9.60;;;19.90;92.10;;;;;;4884953;29;20171;-79
2023/06/09 07:36:22;;;;;;;79.27;12.77;;;20.00;83.70;;;;;;4885136;29;20422;-78
2023/06/09 07:38:47;;;;;;;73.10;13.03;;;20.10;96.40;;;;;;4883732;29;20488;-78
2023/06/09 07:41:13;;;;;;;70.77;10.17;;;20.20;99.90;;;;;;4885892;29;20523;-80
2023/06/09 07:43:39;;;;;;;70.60;10.93;;;20.20;93.90;;;;;;4885091;29;20176;-78
2023/06/09 07:46:07;;;;;;;70.57;10.83;;;20.30;99.90;;;;;;4885063;29;20411;-80
2023/06/09 07:48:32;;;;;;;72.70;11.03;;;20.30;98.60;;;;;;4884794;29;20411;-79
2023/06/09 07:50:58;;;;;;;71.10;9.70;;;20.40;94.40;;;;;;4884441;29;20938;-78
2023/06/09 07:53:24;;;;;;;70.20;8.50;;;20.50;87.30;;;;;;4884646;29;20168;-79
2023/06/09 07:55:50;;;;;;;69.53;8.50;;;20.60;77.40;;;;;;4883362;29;20453;-79
2023/06/09 07:58:15;;;;;;;77.53;9.80;;;20.70;67.80;;;;;;4884426;29;20262;-78
2023/06/09 08:00:41;;;;;;;69.60;9.50;;;20.70;91.40;;;;;;4885119;29;20210;-79
2023/06/09 08:03:07;;;;;;;72.40;8.77;;;20.70;75.40;;;;;;4884851;29;20172;-79
2023/06/09 08:05:33;;;;;;;70.93;8.47;;;20.80;55.90;;;;;;4884225;29;20175;-79
2023/06/09 08:08:02;;;;;;;68.37;8.90;;;20.80;70.30;;;;;;4884388;29;20431;-79
2023/06/09 08:10:28;;;;;;;69.87;9.00;;;20.90;81.20;;;;;;4884570;29;20577;-80
2023/06/09 08:12:53;;;;;;;70.27;8.60;;;21.00;50.40;;;;;;4884604;29;20494;-79
2023/06/09 08:15:20;;;;;;;72.30;8.43;;;21.00;45.20;;;;;;4884449;29;20185;-80
2023/06/09 08:17:46;;;;;;;69.37;8.30;;;21.10;53.80;;;;;;4884369;29;20190;-79
2023/06/09 08:20:12;;;;;;;69.37;8.43;;;21.10;42.90;;;;;;4883684;29;20451;-80
2023/06/09 08:22:37;;;;;;;72.00;8.90;;;21.20;50.90;;;;;;4883413;29;20206;-78
2023/06/09 08:25:03;;;;;;;71.67;9.20;;;21.30;46.50;;;;;;4882596;29;20429;-80
2023/06/09 08:27:29;;;;;;;67.93;7.67;;;21.30;59.60;;;;;;4883572;29;20225;-80
2023/06/09 08:29:55;;;;;;;71.37;8.20;;;21.40;44.00;;;;;;4883784;29;20453;-80
2023/06/09 08:32:21;;;;;;;73.50;10.30;;;21.50;40.90;;;;;;4882823;29;20185;-80
2023/06/09 08:34:46;;;;;;;70.33;8.80;;;21.60;29.50;;;;;;4884334;29;20419;-79
2023/06/09 08:37:13;;;;;;;74.10;8.53;;;21.60;27.50;;;;;;4884108;29;20202;-80
2023/06/09 08:39:39;;;;;;;68.17;6.97;;;21.80;27.80;;;;;;4883296;29;20195;-80
2023/06/09 08:42:10;;;;;;;70.47;9.00;;;21.90;23.70;;;;;;4884318;29;20410;-79
2023/06/09 08:44:40;;;;;;;73.43;7.47;;;22.10;39.00;;;;;;4883811;29;20510;-79
2023/06/09 08:47:08;;;;;;;70.10;8.47;;;22.20;15.50;;;;;;4884035;29;20438;-78
2023/06/09 08:49:34;;;;;;;72.30;9.00;;;22.30;29.40;;;;;;4884522;29;20460;-80
2023/06/09 08:52:04;;;;;;;70.60;8.50;;;22.40;17.70;;;;;;4884238;29;20410;-79
2023/06/09 08:54:30;;;;;;;68.97;7.63;;;22.40;9.00;;;;;;4883693;29;20435;-79
2023/06/09 08:56:57;;;;;;;70.90;8.40;;;22.60;17.60;;;;;;4883769;29;20437;-79
2023/06/09 08:59:23;;;;;;;71.00;7.70;;;22.70;1.00;;;;;;4883664;29;20538;-79
2023/06/09 09:01:49;;;;;;;69.00;7.30;;;22.80;18.60;;;;;;4883789;29;20414;-80
2023/06/09 09:04:19;;;;;;;70.60;8.00;;;22.80;1.00;;;;;;4883817;29;20499;-78
2023/06/09 09:06:45;;;;;;;69.60;8.20;;;22.90;1.00;;;;;;4882196;29;20522;-79
2023/06/09 09:09:11;;;;;;;69.60;7.40;;;23.00;1.00;;;;;;4883571;29;20434;-80
2023/06/09 09:11:37;;;;;;;70.87;7.73;;;23.00;1.60;;;;;;4883998;29;20419;-80
2023/06/09 09:14:10;;;;;;;69.60;8.37;;;23.20;1.00;;;;;;4883218;29;20587;-80
2023/06/09 09:16:36;;;;;;;70.70;7.10;;;23.30;1.00;;;;;;4883634;29;20466;-78
2023/06/09 09:19:03;;;;;;;71.93;7.97;;;23.40;1.00;;;;;;4883388;29;20495;-78
2023/06/09 09:21:28;;;;;;;71.77;10.67;;;23.60;1.00;;;;;;4883335;29;20171;-79
2023/06/09 09:24:01;;;;;;;71.17;9.83;;;23.60;1.00;;;;;;4883864;29;20857;-79
2023/06/09 09:26:30;;;;;;;75.47;8.10;;;23.70;1.00;;;;;;4882338;29;20185;-79
2023/06/09 09:29:08;;;;;;;72.17;16.57;;;23.90;1.00;;;;;;4884186;29;20447;-80
2023/06/09 09:31:41;;;;;;;73.57;14.60;;;24.00;1.00;;;;;;4883768;29;20403;-79
2023/06/09 09:34:14;;;;;;;71.73;13.70;;;24.10;1.00;;;;;;4880889;29;20570;-80
2023/06/09 09:36:46;;;;;;;74.33;16.13;;;24.30;1.00;;;;;;4882755;29;20443;-79
2023/06/09 09:39:12;;;;;;;80.83;23.47;;;24.50;1.00;;;;;;4882702;29;20454;-80
2023/06/09 09:41:38;;;;;;;79.17;26.27;;;24.60;1.00;;;;;;4882313;29;20403;-79
2023/06/09 09:44:04;;;;;;;76.27;25.27;;;24.80;1.00;;;;;;4882382;29;20407;-79
2023/06/09 09:46:37;;;;;;;76.37;27.77;;;24.90;1.00;;;;;;4882558;29;20186;-79
2023/06/09 09:49:05;;;;;;;78.20;33.30;;;25.00;1.00;;;;;;4882635;29;20174;-80
2023/06/09 09:51:35;;;;;;;76.50;21.27;;;25.10;1.00;;;;;;4882500;29;20502;-80
2023/06/09 09:54:29;;;;;;;72.30;9.43;;;25.30;1.00;;;;;;5164855;22;20541;-81
2023/06/09 09:57:17;;;;;;;73.20;9.30;;;25.30;1.00;;;;;;5050607;28;20454;-81
2023/06/09 09:59:49;;;;;;;70.00;9.00;;;25.30;1.00;;;;;;5034141;28;20417;-80
2023/06/09 10:05:46;;;;;;;75.50;20.00;;;25.80;1.00;;;;;;4992181;28;20445;-80
2023/06/09 10:08:26;;;;;;;74.57;14.50;;;26.00;1.00;;;;;;4992413;28;20420;-80
2023/06/09 10:10:57;;;;;;;74.47;10.40;;;26.30;1.00;;;;;;5028358;28;20422;-81
2023/06/09 10:13:28;;;;;;;71.40;9.00;;;26.50;1.00;;;;;;5033354;28;20451;-81
2023/06/09 10:15:59;;;;;;;72.40;9.97;;;26.50;1.00;;;;;;5048701;28;20419;-81
2023/06/09 10:18:26;;;;;;;72.83;10.10;;;26.60;1.00;;;;;;5048911;28;20426;-80
2023/06/09 10:21:00;;;;;;;72.47;10.10;;;27.00;1.00;;;;;;5033789;28;20389;-81
2023/06/09 10:23:31;;;;;;;71.17;9.60;;;27.30;1.00;;;;;;5033805;28;20383;-82
2023/06/09 10:25:59;;;;;;;73.17;10.60;;;27.50;1.00;;;;;;5034708;28;20387;-81
2023/06/09 10:28:28;;;;;;;74.30;10.43;;;27.20;1.00;;;;;;5033283;28;20834;-81
2023/06/09 10:30:55;;;;;;;72.67;8.80;;;27.30;1.00;;;;;;5034516;28;20494;-81
2023/06/09 10:33:27;;;;;;;70.90;8.20;;;27.30;1.00;;;;;;5033801;28;20446;-82
2023/06/09 10:35:59;;;;;;;71.40;9.20;;;27.40;1.00;;;;;;5033569;28;20381;-81
2023/06/09 10:38:31;;;;;;;73.27;9.90;;;27.60;1.00;;;;;;5033177;28;20416;-81
2023/06/09 10:41:18;;;;;;;74.80;9.43;;;27.60;1.00;;;;;;5033213;28;20459;-81
2023/06/09 10:44:24;;;;;;;74.10;9.10;;;27.60;1.00;;;;;;5029432;28;20409;-82
2023/06/09 10:46:52;;;;;;;70.43;8.47;;;28.00;1.00;;;;;;5032917;28;20419;-82
2023/06/09 10:49:36;;;;;;;70.80;8.30;;;27.80;1.00;;;;;;5032674;28;20457;-81
2023/06/09 10:52:35;;;;;;;71.60;8.67;;;27.80;1.00;;;;;;5033325;28;20423;-81
2023/06/09 10:55:14;;;;;;;73.10;10.87;;;27.90;1.00;;;;;;5032262;28;20416;-81
2023/06/09 10:57:41;;;;;;;75.60;8.87;;;28.10;1.00;;;;;;5032863;28;20483;-81
2023/06/09 11:00:16;;;;;;;71.47;8.23;;;28.20;1.00;;;;;;5048141;28;20412;-80
2023/06/09 11:02:52;;;;;;;71.40;7.60;;;28.30;1.00;;;;;;5033007;28;20471;-81
2023/06/09 11:05:20;;;;;;;70.50;6.50;;;28.50;1.00;;;;;;5020904;28;20407;-81
2023/06/09 11:08:04;;;;;;;70.53;5.57;;;28.50;1.00;;;;;;5019376;28;20420;-81
2023/06/09 11:10:30;;;;;;;73.90;8.70;;;28.70;1.00;;;;;;5019724;28;20733;-80
2023/06/09 11:12:56;;;;;;;72.00;5.80;;;28.70;1.00;;;;;;5019171;28;20801;-81
2023/06/09 11:15:23;;;;;;;71.60;6.20;;;29.10;1.00;;;;;;5020014;28;20401;-82
2023/06/09 11:17:53;;;;;;;71.90;5.07;;;29.10;1.00;;;;;;5034915;28;20435;-82
2023/06/09 11:20:21;;;;;;;70.67;5.00;;;29.40;1.00;;;;;;5020183;28;20425;-82
2023/06/09 11:22:48;;;;;;;72.00;4.40;;;29.70;1.00;;;;;;5018522;28;20916;-81
2023/06/09 11:25:19;;;;;;;70.77;4.60;;;30.00;1.00;;;;;;5018037;28;20455;-81
2023/06/09 11:27:47;;;;;;;71.17;5.53;;;30.00;1.00;;;;;;5019781;28;20496;-82
2023/06/09 11:30:18;;;;;;;72.27;5.70;;;29.80;1.00;;;;;;5035083;28;20447;-81
2023/06/09 11:32:49;;;;;;;73.70;4.93;;;29.90;1.00;;;;;;5018016;28;20457;-82
2023/06/09 11:35:40;;;;;;;70.33;5.37;;;30.30;1.00;;;;;;5019155;28;20405;-81
2023/06/09 11:38:11;;;;;;;75.50;6.30;;;30.30;1.00;;;;;;5017765;28;20568;-81
2023/06/09 11:40:40;;;;;;;71.57;5.70;;;30.40;1.00;;;;;;5019557;28;20404;-82
2023/06/09 11:43:07;;;;;;;71.17;7.23;;;30.60;1.00;;;;;;5034970;28;20516;-83
2023/06/09 11:45:34;;;;;;;72.03;6.13;;;30.40;1.00;;;;;;5020010;28;20401;-83
2023/06/09 11:48:00;;;;;;;70.40;6.70;;;30.30;1.00;;;;;;5035592;28;20441;-82
2023/06/09 11:50:42;;;;;;;71.97;6.20;;;30.30;1.00;;;;;;5035048;28;20405;-83
2023/06/09 11:53:10;;;;;;;70.70;6.13;;;30.30;1.00;;;;;;5019795;28;20467;-82
2023/06/09 11:55:36;;;;;;;72.60;7.93;;;30.00;1.00;;;;;;5019083;28;20425;-82
2023/06/09 11:58:04;;;;;;;73.23;7.50;;;30.10;1.00;;;;;;5034165;28;20440;-82
2023/06/09 12:00:33;;;;;;;70.77;6.80;;;30.00;1.00;;;;;;5035418;28;20413;-82
2023/06/09 12:02:59;;;;;;;73.20;6.90;;;30.30;1.00;;;;;;5019980;28;20405;-82
2023/06/09 12:05:27;;;;;;;71.73;7.70;;;30.60;1.00;;;;;;5019783;28;20412;-82
2023/06/09 12:07:54;;;;;;;71.83;8.37;;;30.70;1.00;;;;;;5035114;28;20440;-82
2023/06/09 12:10:23;;;;;;;71.17;7.97;;;30.20;1.00;;;;;;5019776;28;20409;-83
2023/06/09 12:13:00;;;;;;;72.37;8.60;;;29.80;1.00;;;;;;5018124;28;20452;-83
2023/06/09 12:15:30;;;;;;;72.17;8.80;;;29.80;1.00;;;;;;5019688;28;20400;-82
2023/06/09 12:17:58;;;;;;;70.80;7.10;;;29.70;1.00;;;;;;5034214;28;20439;-82
2023/06/09 12:20:34;;;;;;;72.57;6.77;;;30.10;1.00;;;;;;5019315;28;20761;-82
2023/06/09 12:23:13;;;;;;;71.37;8.27;;;30.30;1.00;;;;;;5020376;28;20413;-82
2023/06/09 12:25:44;;;;;;;72.13;8.43;;;30.40;1.00;;;;;;5018653;28;20420;-83
2023/06/09 12:28:26;;;;;;;71.50;7.57;;;29.80;1.00;;;;;;5019290;28;20504;-82
2023/06/09 12:30:53;;;;;;;71.40;8.30;;;29.40;1.00;;;;;;5018027;28;20420;-83
2023/06/09 12:33:27;;;;;;;70.40;5.93;;;29.40;1.00;;;;;;5020529;28;20444;-82
2023/06/09 12:36:10;;;;;;;72.27;9.97;;;29.50;1.00;;;;;;5019635;28;20405;-84
2023/06/09 12:38:41;;;;;;;73.90;13.20;;;29.50;1.00;;;;;;5020144;28;20377;-84
2023/06/09 12:41:09;;;;;;;76.27;11.53;;;29.10;1.00;;;;;;5020037;28;20405;-83
2023/06/09 12:43:51;;;;;;;73.63;15.60;;;28.90;1.00;;;;;;5020007;28;20770;-84